createdAt,value
2023-04-25T00:02:01.000Z,4.18
2023-04-25T00:04:29.176Z,4.20
2023-04-25T00:06:57.351Z,4.55
2023-04-25T00:09:25.478Z,4.05
2023-04-25T00:11:53.320Z,3.97
2023-04-25T00:14:21.585Z,3.58
2023-04-25T00:16:50.047Z,4.20
2023-04-25T00:19:17.819Z,4.47
2023-04-25T00:21:47.408Z,4.32
2023-04-25T00:24:15.323Z,4.00
2023-04-25T00:26:42.937Z,4.07
2023-04-25T00:29:10.890Z,4.45
2023-04-25T00:31:39.524Z,4.22
2023-04-25T00:34:09.588Z,4.30
2023-04-25T00:36:37.572Z,3.80
2023-04-25T00:39:06.335Z,4.43
2023-04-25T00:41:34.313Z,3.75
2023-04-25T00:44:04.190Z,3.50
2023-04-25T00:46:32.532Z,3.70
2023-04-25T00:49:02.546Z,3.30
2023-04-25T00:51:31.255Z,3.55
2023-04-25T00:54:01.606Z,3.45
2023-04-25T00:56:30.685Z,3.40
2023-04-25T00:58:58.790Z,3.67
2023-04-25T01:01:26.799Z,3.05
2023-04-25T01:03:55.844Z,3.20
2023-04-25T01:06:24.145Z,3.72
2023-04-25T01:08:53.040Z,3.40
2023-04-25T01:11:21.170Z,3.63
2023-04-25T01:13:51.296Z,3.28
2023-04-25T01:16:19.737Z,3.10
2023-04-25T01:18:48.555Z,3.50
2023-04-25T01:21:16.487Z,3.38
2023-04-25T01:23:44.765Z,4.05
2023-04-25T01:26:16.327Z,3.20
2023-04-25T01:28:44.621Z,3.83
2023-04-25T01:31:16.984Z,3.45
2023-04-25T01:33:46.180Z,3.60
2023-04-25T01:36:14.992Z,3.70
2023-04-25T01:38:45.626Z,3.58
2023-04-25T01:41:13.673Z,4.03
2023-04-25T01:43:41.843Z,4.00
2023-04-25T01:46:09.753Z,3.67
2023-04-25T01:48:37.676Z,3.50
2023-04-25T01:51:07.347Z,3.78
2023-04-25T01:53:35.426Z,5.13
2023-04-25T01:56:05.638Z,4.78
2023-04-25T01:58:36.003Z,4.40
2023-04-25T02:01:22.332Z,4.47
2023-04-25T02:04:06.368Z,4.00
2023-04-25T02:06:37.892Z,4.20
2023-04-25T02:09:06.236Z,4.15
2023-04-25T02:11:34.133Z,4.10
2023-04-25T02:14:22.226Z,4.80
2023-04-25T02:16:59.352Z,4.65
2023-04-25T02:19:27.630Z,4.30
2023-04-25T02:21:55.666Z,4.80
2023-04-25T02:24:23.698Z,5.35
2023-04-25T02:26:53.896Z,4.78
2023-04-25T02:29:21.894Z,4.78
2023-04-25T02:31:51.138Z,5.57
2023-04-25T02:34:19.161Z,4.90
2023-04-25T02:36:46.944Z,4.60
2023-04-25T02:39:15.930Z,5.00
2023-04-25T02:41:43.804Z,4.43
2023-04-25T02:44:11.681Z,4.90
2023-04-25T02:46:40.051Z,5.47
2023-04-25T02:49:09.139Z,4.80
2023-04-25T02:51:40.000Z,5.78
2023-04-25T02:54:08.006Z,5.18
2023-04-25T02:56:40.355Z,5.65
2023-04-25T02:59:13.490Z,5.45
2023-04-25T03:01:41.304Z,5.38
2023-04-25T03:04:09.193Z,5.32
2023-04-25T03:06:37.192Z,5.18
2023-04-25T03:09:05.150Z,4.95
2023-04-25T03:11:33.432Z,5.63
2023-04-25T03:14:03.118Z,5.80
2023-04-25T03:16:31.143Z,4.95
2023-04-25T03:18:59.064Z,5.20
2023-04-25T03:21:27.688Z,5.13
2023-04-25T03:23:55.529Z,5.68
2023-04-25T03:26:23.254Z,5.68
2023-04-25T03:28:51.705Z,5.25
2023-04-25T03:31:20.171Z,5.80
2023-04-25T03:33:48.211Z,5.35
2023-04-25T03:36:16.124Z,5.90
2023-04-25T03:38:44.274Z,5.95
2023-04-25T03:41:14.708Z,6.03
2023-04-25T03:43:46.291Z,5.85
2023-04-25T03:46:15.172Z,5.57
2023-04-25T03:48:44.116Z,5.80
2023-04-25T03:51:16.924Z,5.38
2023-04-25T03:53:46.408Z,5.70
2023-04-25T03:56:34.553Z,4.97
2023-04-25T03:59:10.742Z,5.60
2023-04-25T04:01:38.954Z,5.63
2023-04-25T04:04:07.048Z,6.10
2023-04-25T04:06:36.071Z,6.07
2023-04-25T04:09:12.098Z,5.63
2023-04-25T04:11:41.441Z,5.70
2023-04-25T04:14:11.082Z,6.75
2023-04-25T04:16:41.488Z,7.40
2023-04-25T04:19:10.352Z,6.43
2023-04-25T04:21:39.638Z,7.82
2023-04-25T04:24:08.390Z,8.07
2023-04-25T04:26:49.186Z,7.85
2023-04-25T04:29:37.790Z,8.55
2023-04-25T04:32:26.721Z,8.02
2023-04-25T04:34:56.560Z,8.77
2023-04-25T04:37:25.988Z,8.02
2023-04-25T04:39:53.846Z,8.10
2023-04-25T04:42:29.268Z,7.18
2023-04-25T04:45:17.443Z,7.18
2023-04-25T04:47:57.250Z,6.82
2023-04-25T04:50:47.013Z,7.05
2023-04-25T04:53:40.939Z,7.70
2023-04-25T04:56:16.552Z,7.22
2023-04-25T04:59:06.896Z,7.60
2023-04-25T05:01:54.073Z,7.68
2023-04-25T05:04:57.970Z,6.88
2023-04-25T05:07:47.785Z,7.53
2023-04-25T05:10:33.243Z,7.15
2023-04-25T05:13:21.139Z,6.25
2023-04-25T05:16:07.591Z,6.97
2023-04-25T05:18:41.383Z,8.05
2023-04-25T05:21:23.651Z,8.30
2023-04-25T05:24:10.067Z,9.27
2023-04-25T05:26:46.612Z,9.38
2023-04-25T05:29:32.862Z,9.98
2023-04-25T05:32:23.629Z,9.45
2023-04-25T05:34:54.688Z,9.00
2023-04-25T05:37:33.969Z,7.65
2023-04-25T05:40:11.323Z,8.38
2023-04-25T05:42:48.143Z,7.85
2023-04-25T05:45:32.568Z,7.47
2023-04-25T05:48:06.373Z,7.53
2023-04-25T05:50:44.465Z,6.82
2023-04-25T05:53:25.076Z,8.35
2023-04-25T05:55:59.018Z,7.15
2023-04-25T05:58:28.450Z,7.45
2023-04-25T06:00:56.618Z,7.68
2023-04-25T06:03:24.944Z,7.25
2023-04-25T06:05:53.526Z,7.43
2023-04-25T06:08:21.586Z,7.25
2023-04-25T06:10:50.023Z,8.50
2023-04-25T06:13:18.026Z,9.10
2023-04-25T06:15:46.193Z,9.25
2023-04-25T06:18:14.033Z,8.32
2023-04-25T06:20:41.768Z,7.65
2023-04-25T06:23:09.569Z,8.45
2023-04-25T06:25:52.414Z,7.63
2023-04-25T06:28:20.590Z,7.60
2023-04-25T06:30:48.556Z,8.40
2023-04-25T06:33:19.509Z,8.25
2023-04-25T06:35:47.283Z,7.85
2023-04-25T06:38:18.672Z,8.35
2023-04-25T06:40:50.074Z,9.00
2023-04-25T06:43:18.930Z,9.18
2023-04-25T06:45:59.365Z,7.93
2023-04-25T06:48:30.993Z,8.18
2023-04-25T06:50:59.999Z,8.25
2023-04-25T06:53:29.444Z,8.98
2023-04-25T06:56:01.012Z,9.43
2023-04-25T06:58:40.125Z,8.85
2023-04-25T07:01:18.816Z,8.73
2023-04-25T07:03:47.020Z,9.60
2023-04-25T07:06:19.133Z,8.73
2023-04-25T07:08:48.648Z,9.32
2023-04-25T07:11:16.777Z,9.88
2023-04-25T07:13:44.822Z,9.23
2023-04-25T07:16:12.809Z,9.43
2023-04-25T07:18:40.835Z,9.75
2023-04-25T07:21:08.538Z,9.48
2023-04-25T07:23:41.926Z,9.57
2023-04-25T07:29:02.451Z,9.13
2023-04-25T07:31:30.473Z,9.25
2023-04-25T07:34:01.889Z,9.68
2023-04-25T07:36:32.052Z,9.75
2023-04-25T07:38:59.857Z,12.05
2023-04-25T07:41:27.822Z,15.93
2023-04-25T07:43:55.925Z,16.33
2023-04-25T07:46:24.209Z,13.95
2023-04-25T07:48:54.793Z,13.23
2023-04-25T07:51:23.561Z,10.70
2023-04-25T07:53:59.349Z,11.20
2023-04-25T07:56:28.525Z,10.52
2023-04-25T07:58:58.548Z,10.73
2023-04-25T08:01:26.623Z,11.10
2023-04-25T08:04:05.801Z,10.93
2023-04-25T08:06:49.186Z,11.20
2023-04-25T08:09:24.946Z,13.50
2023-04-25T08:11:57.765Z,13.88
2023-04-25T08:14:37.102Z,12.25
2023-04-25T08:17:06.381Z,12.00
2023-04-25T08:19:36.966Z,10.73
2023-04-25T08:22:05.366Z,11.27
2023-04-25T08:24:44.091Z,9.68
2023-04-25T08:27:13.588Z,9.68
2023-04-25T08:29:44.513Z,9.85
2023-04-25T08:32:12.541Z,10.05
2023-04-25T08:34:48.057Z,9.82
2023-04-25T08:37:20.818Z,8.98
2023-04-25T08:39:57.472Z,9.95
2023-04-25T08:42:47.281Z,10.80
2023-04-25T08:45:16.084Z,10.23
2023-04-25T08:47:50.333Z,10.07
2023-04-25T08:50:18.733Z,10.50
2023-04-25T08:52:53.702Z,10.95
2023-04-25T08:55:28.927Z,9.95
2023-04-25T08:58:02.198Z,9.93
2023-04-25T09:00:30.755Z,10.52
2023-04-25T09:03:00.814Z,11.73
2023-04-25T09:05:35.401Z,10.93
2023-04-25T09:08:03.729Z,10.77
2023-04-25T09:13:14.387Z,9.52
2023-04-25T09:16:01.430Z,10.10
2023-04-25T09:19:01.141Z,9.00
2023-04-25T09:21:43.198Z,9.32
2023-04-25T09:24:13.843Z,9.95
2023-04-25T09:26:45.116Z,9.43
2023-04-25T09:29:13.508Z,10.20
2023-04-25T09:31:43.297Z,10.75
2023-04-25T09:34:16.733Z,10.27
2023-04-25T09:36:56.490Z,11.15
2023-04-25T09:40:03.945Z,12.43
2023-04-25T09:42:35.795Z,10.85
2023-04-25T09:45:05.243Z,10.75
2023-04-25T09:47:39.301Z,9.68
2023-04-25T09:50:18.156Z,9.98
2023-04-25T09:53:05.123Z,9.52
2023-04-25T09:55:45.079Z,10.10
2023-04-25T09:58:13.465Z,10.90
2023-04-25T10:00:43.039Z,10.98
2023-04-25T10:03:27.111Z,10.60
2023-04-25T10:06:22.850Z,10.80
2023-04-25T10:08:56.025Z,10.57
2023-04-25T10:11:27.611Z,10.85
2023-04-25T10:13:57.236Z,10.73
2023-04-25T10:16:26.606Z,10.52
2023-04-25T10:18:55.060Z,10.38
2023-04-25T10:21:23.418Z,9.70
2023-04-25T10:23:52.417Z,8.95
2023-04-25T10:26:21.023Z,9.77
2023-04-25T10:29:00.297Z,10.07
2023-04-25T10:31:28.996Z,9.85
2023-04-25T10:33:57.527Z,9.10
2023-04-25T10:36:28.724Z,9.50
2023-04-25T10:38:56.622Z,8.82
2023-04-25T10:41:24.415Z,8.15
2023-04-25T10:44:02.492Z,7.93
2023-04-25T10:46:33.373Z,7.82
2023-04-25T10:49:03.133Z,7.72
2023-04-25T10:51:50.997Z,7.90
2023-04-25T10:54:23.434Z,6.90
2023-04-25T10:56:52.367Z,6.88
2023-04-25T10:59:26.643Z,6.18
2023-04-25T11:01:57.992Z,6.43
2023-04-25T11:04:27.128Z,6.72
2023-04-25T11:07:24.019Z,6.47
2023-04-25T11:09:51.837Z,6.60
2023-04-25T11:12:19.527Z,5.97
2023-04-25T11:14:47.213Z,6.10
2023-04-25T11:17:15.249Z,6.78
2023-04-25T11:19:43.046Z,7.15
2023-04-25T11:22:11.844Z,6.70
2023-04-25T11:24:39.812Z,6.90
2023-04-25T11:27:07.585Z,5.90
2023-04-25T11:29:36.234Z,6.75
2023-04-25T11:32:04.196Z,8.45
2023-04-25T11:34:34.463Z,7.88
2023-04-25T11:37:03.685Z,8.15
2023-04-25T11:39:32.040Z,7.72
2023-04-25T11:44:48.342Z,5.70
2023-04-25T11:47:16.252Z,5.55
2023-04-25T11:47:39.595Z,6.93
2023-04-25T11:49:43.977Z,5.60
2023-04-25T11:52:14.467Z,5.97
2023-04-25T11:54:42.251Z,5.93
2023-04-25T11:57:14.560Z,6.40
2023-04-25T11:59:42.432Z,5.03
2023-04-25T12:02:10.454Z,5.70
2023-04-25T12:04:39.629Z,10.63
2023-04-25T12:07:11.290Z,24.73
2023-04-25T12:09:39.053Z,27.25
2023-04-25T12:12:11.464Z,25.27
2023-04-25T12:14:39.525Z,17.02
2023-04-25T12:17:09.564Z,12.85
2023-04-25T12:19:41.781Z,9.40
2023-04-25T12:22:24.531Z,7.85
2023-04-25T12:24:55.021Z,8.35
2023-04-25T12:27:23.071Z,7.75
2023-04-25T12:29:57.722Z,7.13
2023-04-25T12:32:26.479Z,5.43
2023-04-25T12:34:54.250Z,6.15
2023-04-25T12:37:22.272Z,8.85
2023-04-25T12:39:49.945Z,9.98
2023-04-25T12:42:17.786Z,8.77
2023-04-25T12:44:45.904Z,8.48
2023-04-25T12:47:13.935Z,7.57
2023-04-25T12:49:41.973Z,7.55
2023-04-25T12:52:09.831Z,7.45
2023-04-25T12:54:37.731Z,12.93
2023-04-25T12:57:05.862Z,13.23
2023-04-25T12:59:33.609Z,11.57
2023-04-25T13:02:01.758Z,8.10
2023-04-25T13:04:29.936Z,7.95
2023-04-25T13:06:58.092Z,7.68
2023-04-25T13:09:25.820Z,8.10
2023-04-25T13:11:56.134Z,11.85
2023-04-25T13:14:34.985Z,10.70
2023-04-25T13:17:03.008Z,12.07
2023-04-25T13:19:31.823Z,12.25
2023-04-25T13:22:00.082Z,12.80
2023-04-25T13:24:27.753Z,12.50
2023-04-25T13:26:55.492Z,11.80
2023-04-25T13:29:23.517Z,12.30
2023-04-25T13:31:51.315Z,10.07
2023-04-25T13:34:19.063Z,9.18
2023-04-25T13:36:47.236Z,9.60
2023-04-25T13:39:15.337Z,9.20
2023-04-25T13:41:43.084Z,7.43
2023-04-25T13:44:11.552Z,6.65
2023-04-25T13:49:12.913Z,6.45
2023-04-25T13:51:42.041Z,6.30
2023-04-25T13:54:09.917Z,6.25
2023-04-25T13:56:37.939Z,6.57
2023-04-25T13:59:05.574Z,6.80
2023-04-25T14:01:35.470Z,6.32
2023-04-25T14:04:05.370Z,5.88
2023-04-25T14:06:34.149Z,6.32
2023-04-25T14:09:02.288Z,6.13
2023-04-25T14:11:30.365Z,6.30
2023-04-25T14:13:58.114Z,6.35
2023-04-25T14:16:26.263Z,5.00
2023-04-25T14:18:55.672Z,4.78
2023-04-25T14:21:23.645Z,4.93
2023-04-25T14:23:51.695Z,5.05
2023-04-25T14:26:21.408Z,5.57
2023-04-25T14:28:49.302Z,4.90
2023-04-25T14:31:17.378Z,5.10
2023-04-25T14:33:45.210Z,5.68
2023-04-25T14:36:13.096Z,5.90
2023-04-25T14:38:41.078Z,5.35
2023-04-25T14:41:08.909Z,5.93
2023-04-25T14:43:37.627Z,5.18
2023-04-25T14:46:05.786Z,6.22
2023-04-25T14:48:35.635Z,6.28
2023-04-25T14:51:03.785Z,6.05
2023-04-25T14:53:33.131Z,5.78
2023-04-25T14:56:00.894Z,6.85
2023-04-25T14:58:28.611Z,4.93
2023-04-25T15:00:57.324Z,5.45
2023-04-25T15:03:25.535Z,5.20
2023-04-25T15:05:55.170Z,5.88
2023-04-25T15:08:22.953Z,4.57
2023-04-25T15:10:52.378Z,4.90
2023-04-25T15:13:20.698Z,4.90
2023-04-25T15:15:52.406Z,4.90
2023-04-25T15:18:24.881Z,5.90
2023-04-25T15:20:54.374Z,5.50
2023-04-25T15:23:22.782Z,5.80
2023-04-25T15:25:53.624Z,5.40
2023-04-25T15:28:22.528Z,5.43
2023-04-25T15:30:50.738Z,4.85
2023-04-25T15:33:18.400Z,5.13
2023-04-25T15:35:46.134Z,5.47
2023-04-25T15:38:14.039Z,5.30
2023-04-25T15:40:41.894Z,5.32
2023-04-25T15:43:15.984Z,5.63
2023-04-25T15:45:44.140Z,5.40
2023-04-25T15:48:12.329Z,5.15
2023-04-25T15:50:42.681Z,4.65
2023-04-25T15:53:10.937Z,4.93
2023-04-25T15:55:39.165Z,4.43
2023-04-25T15:58:11.465Z,4.50
2023-04-25T16:00:40.687Z,5.20
2023-04-25T16:03:09.756Z,4.65
2023-04-25T16:05:37.956Z,4.97
2023-04-25T16:08:05.602Z,5.88
2023-04-25T16:10:34.466Z,7.43
2023-04-25T16:13:02.305Z,7.85
2023-04-25T16:15:31.664Z,7.57
2023-04-25T16:18:00.516Z,7.20
2023-04-25T16:20:28.356Z,6.30
2023-04-25T16:22:56.268Z,5.10
2023-04-25T16:25:24.329Z,6.20
2023-04-25T16:27:52.155Z,5.40
2023-04-25T16:30:20.157Z,5.53
2023-04-25T16:32:48.204Z,5.15
2023-04-25T16:35:15.867Z,5.18
2023-04-25T16:37:43.573Z,5.00
2023-04-25T16:40:12.025Z,4.95
2023-04-25T16:42:42.768Z,4.85
2023-04-25T16:45:11.144Z,4.90
2023-04-25T16:47:38.946Z,4.82
2023-04-25T16:50:07.382Z,4.32
2023-04-25T16:52:35.149Z,4.88
2023-04-25T16:55:02.905Z,5.22
2023-04-25T16:57:30.709Z,4.20
2023-04-25T16:59:58.526Z,4.28
2023-04-25T17:02:26.573Z,4.78
2023-04-25T17:04:54.461Z,5.85
2023-04-25T17:07:24.941Z,5.15
2023-04-25T17:09:52.754Z,4.70
2023-04-25T17:12:21.907Z,6.05
2023-04-25T17:14:50.353Z,5.30
2023-04-25T17:17:19.039Z,5.13
2023-04-25T17:19:47.295Z,6.32
2023-04-25T17:22:15.302Z,6.07
2023-04-25T17:24:43.347Z,5.63
2023-04-25T17:27:11.473Z,5.20
2023-04-25T17:29:39.316Z,5.32
2023-04-25T17:32:07.824Z,4.82
2023-04-25T17:34:38.040Z,4.25
2023-04-25T17:37:06.297Z,4.50
2023-04-25T17:39:33.954Z,5.18
2023-04-25T17:42:02.696Z,5.28
2023-04-25T17:44:30.532Z,6.60
2023-04-25T17:46:58.340Z,5.65
2023-04-25T17:49:26.235Z,5.10
2023-04-25T17:51:54.366Z,5.43
2023-04-25T17:54:22.980Z,5.38
2023-04-25T17:56:51.269Z,6.80
2023-04-25T17:59:19.494Z,30.40
2023-04-25T18:01:48.308Z,31.00
2023-04-25T18:04:17.879Z,27.33
2023-04-25T18:06:45.976Z,18.90
2023-04-25T18:09:17.495Z,12.50
2023-04-25T18:11:46.657Z,10.38
2023-04-25T18:14:17.242Z,7.43
2023-04-25T18:16:45.349Z,6.05
2023-04-25T18:19:16.386Z,5.88
2023-04-25T18:21:45.623Z,5.40
2023-04-25T18:24:14.017Z,8.13
2023-04-25T18:26:42.152Z,7.35
2023-04-25T18:29:12.074Z,6.47
2023-04-25T18:31:43.117Z,6.03
2023-04-25T18:34:11.382Z,6.05
2023-04-25T18:36:39.160Z,5.00
2023-04-25T18:39:19.408Z,5.45
2023-04-25T18:41:57.306Z,5.38
2023-04-25T18:44:28.317Z,5.30
2023-04-25T18:46:56.208Z,5.05
2023-04-25T18:49:24.026Z,5.55
2023-04-25T18:51:52.124Z,5.80
2023-04-25T18:54:19.964Z,6.10
2023-04-25T18:56:47.965Z,5.38
2023-04-25T18:59:17.282Z,6.18
2023-04-25T19:01:45.013Z,8.55
2023-04-25T19:04:12.911Z,9.13
2023-04-25T19:06:41.327Z,8.38
2023-04-25T19:09:10.378Z,8.23
2023-04-25T19:11:38.597Z,9.10
2023-04-25T19:14:06.719Z,6.97
2023-04-25T19:16:39.153Z,6.20
2023-04-25T19:19:08.876Z,5.95
2023-04-25T19:21:37.030Z,6.47
2023-04-25T19:24:07.186Z,8.02
2023-04-25T19:26:35.263Z,65.03
2023-04-25T19:29:06.151Z,69.47
2023-04-25T19:31:38.285Z,49.42
2023-04-25T19:34:07.862Z,28.42
2023-04-25T19:36:38.871Z,19.38
2023-04-25T19:39:07.693Z,13.35
2023-04-25T19:41:37.584Z,9.52
2023-04-25T19:44:08.532Z,7.22
2023-04-25T19:46:37.258Z,6.50
2023-04-25T19:49:09.272Z,5.13
2023-04-25T19:51:37.567Z,4.65
2023-04-25T19:54:05.943Z,5.05
2023-04-25T19:56:34.079Z,4.07
2023-04-25T19:59:02.009Z,5.40
2023-04-25T20:01:30.714Z,6.68
2023-04-25T20:03:58.662Z,6.75
2023-04-25T20:06:27.258Z,6.25
2023-04-25T20:08:55.669Z,5.88
2023-04-25T20:11:24.071Z,5.53
2023-04-25T20:13:52.172Z,5.50
2023-04-25T20:16:21.980Z,4.65
2023-04-25T20:18:50.446Z,4.18
2023-04-25T20:21:20.404Z,3.50
2023-04-25T20:23:48.281Z,3.30
2023-04-25T20:26:16.063Z,3.15
2023-04-25T20:28:43.886Z,3.13
2023-04-25T20:31:12.004Z,2.65
2023-04-25T20:33:40.143Z,2.83
2023-04-25T20:36:08.015Z,2.80
2023-04-25T20:38:35.735Z,3.20
2023-04-25T20:41:04.029Z,2.80
2023-04-25T20:43:31.924Z,2.70
2023-04-25T20:46:00.404Z,2.88
2023-04-25T20:48:28.538Z,3.22
2023-04-25T20:50:57.543Z,3.88
2023-04-25T20:53:26.391Z,4.40
2023-04-25T20:55:54.314Z,4.65
2023-04-25T20:58:22.182Z,5.05
2023-04-25T21:00:51.001Z,5.00
2023-04-25T21:03:19.018Z,4.32
2023-04-25T21:05:47.100Z,4.10
2023-04-25T21:08:14.921Z,3.60
2023-04-25T21:10:42.732Z,3.40
2023-04-25T21:13:10.517Z,2.70
2023-04-25T21:15:38.453Z,3.00
2023-04-25T21:18:07.269Z,3.40
2023-04-25T21:20:35.132Z,4.88
2023-04-25T21:23:03.144Z,5.60
2023-04-25T21:25:34.096Z,4.50
2023-04-25T21:28:02.964Z,3.63
2023-04-25T21:30:31.513Z,3.78
2023-04-25T21:32:59.359Z,3.30
2023-04-25T21:35:27.136Z,3.40
2023-04-25T21:37:54.906Z,3.45
2023-04-25T21:40:22.821Z,3.80
2023-04-25T21:42:53.510Z,3.38
2023-04-25T21:45:21.865Z,3.20
2023-04-25T21:47:50.690Z,3.10
2023-04-25T21:50:19.598Z,2.92
2023-04-25T21:52:48.521Z,3.65
2023-04-25T21:55:17.094Z,4.15
2023-04-25T21:57:44.927Z,4.28
2023-04-25T22:00:24.608Z,4.45
2023-04-25T22:02:53.370Z,4.28
2023-04-25T22:05:22.888Z,4.78
2023-04-25T22:07:51.815Z,5.65
2023-04-25T22:10:23.111Z,5.22
2023-04-25T22:12:51.213Z,5.63
2023-04-25T22:15:22.691Z,5.07
2023-04-25T22:17:53.444Z,4.05
2023-04-25T22:20:26.452Z,4.32
2023-04-25T22:22:55.813Z,3.80
2023-04-25T22:25:24.045Z,4.45
2023-04-25T22:27:52.031Z,4.85
2023-04-25T22:30:19.840Z,4.93
2023-04-25T22:32:47.834Z,5.95
2023-04-25T22:35:15.751Z,6.60
2023-04-25T22:37:43.622Z,6.68
2023-04-25T22:40:11.968Z,6.10
2023-04-25T22:42:41.110Z,5.97
2023-04-25T22:45:10.279Z,5.85
2023-04-25T22:47:39.275Z,5.25
2023-04-25T22:50:13.331Z,5.45
2023-04-25T22:52:42.814Z,4.28
2023-04-25T22:55:13.815Z,5.75
2023-04-25T22:57:42.493Z,5.35
2023-04-25T23:00:20.472Z,5.57
2023-04-25T23:02:49.906Z,5.30
2023-04-25T23:05:18.248Z,4.65
2023-04-25T23:07:46.176Z,4.32
2023-04-25T23:10:14.507Z,4.03
2023-04-25T23:12:42.414Z,3.78
2023-04-25T23:15:11.348Z,3.42
2023-04-25T23:17:39.953Z,3.22
2023-04-25T23:20:10.856Z,2.80
2023-04-25T23:22:39.078Z,2.83
2023-04-25T23:25:07.931Z,2.50
2023-04-25T23:27:36.001Z,2.22
2023-04-25T23:30:04.676Z,2.80
2023-04-25T23:32:32.639Z,2.70
2023-04-25T23:35:01.227Z,2.40
2023-04-25T23:37:31.300Z,2.58
2023-04-25T23:39:58.941Z,2.13
2023-04-25T23:42:26.824Z,2.00
2023-04-25T23:44:54.655Z,2.10
2023-04-25T23:47:22.303Z,2.10
2023-04-25T23:49:50.098Z,2.05
2023-04-25T23:52:18.197Z,2.30
2023-04-25T23:54:46.371Z,2.13
2023-04-25T23:57:14.183Z,1.77
2023-04-25T23:59:42.249Z,2.08
